createdAt,value
2023-04-02T00:01:47.302Z,4.60
2023-04-02T00:07:16.640Z,5.90
2023-04-02T00:12:19.760Z,4.40
2023-04-02T00:17:25.004Z,3.90
2023-04-02T00:22:29.993Z,5.10
2023-04-02T00:27:32.473Z,4.80
2023-04-02T00:32:38.824Z,4.70
2023-04-02T00:37:42.216Z,4.60
2023-04-02T00:42:44.833Z,6.00
2023-04-02T00:47:46.596Z,5.90
2023-04-02T00:52:54.429Z,6.00
2023-04-02T00:57:57.933Z,5.90
2023-04-02T01:03:17.823Z,7.20
2023-04-02T01:08:37.918Z,5.90
2023-04-02T01:13:54.755Z,3.50
2023-04-02T01:19:08.799Z,5.20
2023-04-02T01:24:14.668Z,5.10
2023-04-02T01:29:27.609Z,6.20
2023-04-02T01:34:30.886Z,5.60
2023-04-02T01:39:44.648Z,4.60
2023-04-02T01:44:59.785Z,6.00
2023-04-02T01:50:16.656Z,5.60
2023-04-02T01:55:47.106Z,5.70
2023-04-02T02:00:57.018Z,5.60
2023-04-02T02:05:59.648Z,5.40
2023-04-02T02:11:02.594Z,5.50
2023-04-02T02:16:05.310Z,5.80
2023-04-02T02:21:10.630Z,5.50
2023-04-02T02:26:14.488Z,6.40
2023-04-02T02:31:22.893Z,5.20
2023-04-02T02:36:28.710Z,5.20
2023-04-02T02:41:44.959Z,5.00
2023-04-02T02:46:54.229Z,5.70
2023-04-02T02:52:01.805Z,4.80
2023-04-02T02:57:11.616Z,5.30
2023-04-02T03:07:19.328Z,4.10
2023-04-02T03:12:34.906Z,3.50
2023-04-02T03:17:45.945Z,4.50
2023-04-02T03:22:56.237Z,4.90
2023-04-02T03:28:06.274Z,4.40
2023-04-02T03:33:34.146Z,4.90
2023-04-02T03:38:44.172Z,6.60
2023-04-02T03:43:49.221Z,6.10
2023-04-02T03:49:06.264Z,4.40
2023-04-02T03:54:15.618Z,5.60
2023-04-02T03:59:42.808Z,5.80
2023-04-02T04:04:46.962Z,5.20
2023-04-02T04:09:52.614Z,5.30
2023-04-02T04:15:22.605Z,5.80
2023-04-02T04:20:29.496Z,5.00
2023-04-02T04:25:34.354Z,6.70
2023-04-02T04:31:00.236Z,4.90
2023-04-02T04:36:03.842Z,6.60
2023-04-02T04:41:24.518Z,5.80
2023-04-02T04:46:33.061Z,4.80
2023-04-02T04:51:42.439Z,4.70
2023-04-02T04:56:55.736Z,5.80
2023-04-02T05:02:07.769Z,5.80
2023-04-02T05:07:18.539Z,4.60
2023-04-02T05:12:35.381Z,4.20
2023-04-02T05:17:51.387Z,7.20
2023-04-02T05:23:12.436Z,6.20
2023-04-02T05:28:29.921Z,5.10
2023-04-02T05:33:34.157Z,6.40
2023-04-02T05:38:38.178Z,7.20
2023-04-02T05:43:46.229Z,4.90
2023-04-02T05:48:52.108Z,7.40
2023-04-02T05:54:01.434Z,4.70
2023-04-02T05:59:29.856Z,5.30
2023-04-02T06:04:44.967Z,6.00
2023-04-02T06:09:57.079Z,8.00
2023-04-02T06:14:59.118Z,6.10
2023-04-02T06:20:04.122Z,7.10
2023-04-02T06:25:15.873Z,6.40
2023-04-02T06:30:25.421Z,7.90
2023-04-02T06:35:28.085Z,7.30
2023-04-02T06:40:33.635Z,10.10
2023-04-02T06:45:42.173Z,10.10
2023-04-02T06:50:51.198Z,8.80
2023-04-02T06:56:22.352Z,6.70
2023-04-02T07:01:33.888Z,9.10
2023-04-02T07:06:35.571Z,9.30
2023-04-02T07:11:37.245Z,7.20
2023-04-02T07:16:41.457Z,6.40
2023-04-02T07:21:42.954Z,7.30
2023-04-02T07:26:44.556Z,6.30
2023-04-02T07:31:46.387Z,6.30
2023-04-02T07:36:49.262Z,6.80
2023-04-02T07:41:56.423Z,4.90
2023-04-02T07:46:58.209Z,3.70
2023-04-02T07:51:59.798Z,3.20
2023-04-02T07:57:01.997Z,5.50
2023-04-02T08:02:04.514Z,5.80
2023-04-02T08:07:06.453Z,6.50
2023-04-02T08:12:08.036Z,7.20
2023-04-02T08:17:09.593Z,4.60
2023-04-02T08:22:11.798Z,5.40
2023-04-02T08:27:15.191Z,4.20
2023-04-02T08:32:17.374Z,4.50
2023-04-02T08:37:18.868Z,5.50
2023-04-02T08:42:29.634Z,4.80
2023-04-02T08:47:32.690Z,4.80
2023-04-02T08:52:37.544Z,6.20
2023-04-02T08:57:52.236Z,5.80
2023-04-02T09:03:03.606Z,4.70
2023-04-02T09:08:15.444Z,4.70
2023-04-02T09:13:24.231Z,3.80
2023-04-02T09:18:30.752Z,3.90
2023-04-02T09:23:32.315Z,5.20
2023-04-02T09:28:33.840Z,5.20
2023-04-02T09:33:47.512Z,5.50
2023-04-02T09:39:19.944Z,4.50
2023-04-02T09:44:27.449Z,5.10
2023-04-02T09:49:40.087Z,4.40
2023-04-02T09:54:41.734Z,4.20
2023-04-02T09:59:43.407Z,4.70
2023-04-02T10:04:48.440Z,4.60
2023-04-02T10:10:02.285Z,3.30
2023-04-02T10:15:06.122Z,3.70
2023-04-02T10:20:26.271Z,3.70
2023-04-02T10:25:36.209Z,4.60
2023-04-02T10:31:05.151Z,4.60
2023-04-02T10:36:30.399Z,3.20
2023-04-02T10:41:57.465Z,5.80
2023-04-02T10:47:13.152Z,4.40
2023-04-02T10:57:41.281Z,4.60
2023-04-02T11:03:09.507Z,3.60
2023-04-02T11:08:20.013Z,2.40
2023-04-02T11:13:26.744Z,3.00
2023-04-02T11:18:37.506Z,3.30
2023-04-02T11:23:55.694Z,3.40
2023-04-02T11:29:21.562Z,3.20
2023-04-02T11:34:41.389Z,3.70
2023-04-02T11:39:57.014Z,4.10
2023-04-02T11:45:01.995Z,3.10
2023-04-02T11:50:05.011Z,3.90
2023-04-02T11:55:24.456Z,4.00
2023-04-02T12:00:49.585Z,3.90
2023-04-02T12:06:25.741Z,4.50
2023-04-02T12:11:32.898Z,6.70
2023-04-02T12:16:36.131Z,4.90
2023-04-02T12:21:37.981Z,5.90
2023-04-02T12:26:42.368Z,6.70
2023-04-02T12:31:46.594Z,6.40
2023-04-02T12:36:59.603Z,7.00
2023-04-02T12:42:01.688Z,4.30
2023-04-02T12:47:04.669Z,7.30
2023-04-02T12:52:19.397Z,5.30
2023-04-02T12:57:26.940Z,4.40
2023-04-02T13:02:32.224Z,4.60
2023-04-02T13:07:34.010Z,4.20
2023-04-02T13:12:38.316Z,3.60
2023-04-02T13:17:47.946Z,4.00
2023-04-02T13:22:49.650Z,3.50
2023-04-02T13:27:51.309Z,4.40
2023-04-02T13:32:53.130Z,4.40
2023-04-02T13:37:54.787Z,5.60
2023-04-02T13:42:56.546Z,3.90
2023-04-02T13:48:01.338Z,3.40
2023-04-02T13:53:10.620Z,4.30
2023-04-02T13:58:12.396Z,5.60
2023-04-02T14:03:19.187Z,3.80
2023-04-02T14:08:26.910Z,4.40
2023-04-02T14:13:49.841Z,3.90
2023-04-02T14:19:13.930Z,5.20
2023-04-02T14:24:33.825Z,3.80
2023-04-02T14:29:46.829Z,2.90
2023-04-02T14:35:00.622Z,4.10
2023-04-02T14:40:17.536Z,2.60
2023-04-02T14:45:42.806Z,2.40
2023-04-02T14:50:44.486Z,3.10
2023-04-02T14:55:49.930Z,2.70
2023-04-02T15:00:57.593Z,3.00
2023-04-02T15:06:03.524Z,3.00
2023-04-02T15:11:16.457Z,3.60
2023-04-02T15:16:21.440Z,3.20
2023-04-02T15:21:23.266Z,2.70
2023-04-02T15:26:51.861Z,3.00
2023-04-02T15:32:05.350Z,2.80
2023-04-02T15:37:16.382Z,2.60
2023-04-02T15:42:27.883Z,2.70
2023-04-02T15:48:12.330Z,2.50
2023-04-02T15:53:31.198Z,3.60
2023-04-02T15:59:03.963Z,4.30
2023-04-02T16:04:21.538Z,3.40
2023-04-02T16:10:07.025Z,3.30
2023-04-02T16:20:27.472Z,5.60
2023-04-02T16:25:36.128Z,3.40
2023-04-02T16:31:01.671Z,4.50
2023-04-02T16:36:22.464Z,5.50
2023-04-02T16:41:50.698Z,3.90
2023-04-02T16:46:52.358Z,3.00
2023-04-02T16:52:29.216Z,3.50
2023-04-02T16:57:42.896Z,4.40
2023-04-02T17:03:09.060Z,4.50
2023-04-02T17:08:30.549Z,5.50
2023-04-02T17:13:50.461Z,4.10
2023-04-02T17:18:55.488Z,4.60
2023-04-02T17:23:58.580Z,5.10
2023-04-02T17:29:08.463Z,3.80
2023-04-02T17:34:13.993Z,6.40
2023-04-02T17:39:39.590Z,5.10
2023-04-02T17:45:07.129Z,4.80
2023-04-02T17:50:44.316Z,4.30
2023-04-02T17:56:17.510Z,7.00
2023-04-02T18:01:28.505Z,4.70
2023-04-02T18:06:36.084Z,4.50
2023-04-02T18:11:50.629Z,5.40
2023-04-02T18:17:43.134Z,3.80
2023-04-02T18:23:02.795Z,4.00
2023-04-02T18:28:30.446Z,5.50
2023-04-02T18:33:34.872Z,5.00
2023-04-02T18:39:17.523Z,4.10
2023-04-02T18:45:20.436Z,2.90
2023-04-02T18:50:32.649Z,3.80
2023-04-02T18:55:34.505Z,5.10
2023-04-02T19:00:40.094Z,3.30
2023-04-02T19:05:49.560Z,3.00
2023-04-02T19:10:57.851Z,5.00
2023-04-02T19:16:17.646Z,3.30
2023-04-02T19:21:44.777Z,4.00
2023-04-02T19:27:25.713Z,4.10
2023-04-02T19:32:36.181Z,3.10
2023-04-02T19:37:43.467Z,2.80
2023-04-02T19:42:51.343Z,4.60
2023-04-02T19:47:53.625Z,3.10
2023-04-02T19:52:55.184Z,3.90
2023-04-02T19:58:08.511Z,2.90
2023-04-02T20:03:18.212Z,3.00
2023-04-02T20:08:19.944Z,3.00
2023-04-02T20:13:21.637Z,2.60
2023-04-02T20:18:23.197Z,3.20
2023-04-02T20:23:25.051Z,3.20
2023-04-02T20:28:27.726Z,2.70
2023-04-02T20:33:29.329Z,3.30
2023-04-02T20:38:32.180Z,2.80
2023-04-02T20:43:34.418Z,2.40
2023-04-02T20:48:36.580Z,1.90
2023-04-02T20:53:38.534Z,1.80
2023-04-02T20:58:41.779Z,2.10
2023-04-02T21:03:43.736Z,2.10
2023-04-02T21:08:45.425Z,2.20
2023-04-02T21:13:47.007Z,2.40
2023-04-02T21:18:50.925Z,2.40
2023-04-02T21:24:01.088Z,2.50
2023-04-02T21:29:03.786Z,2.40
2023-04-02T21:34:06.837Z,2.10
2023-04-02T21:39:27.273Z,2.70
2023-04-02T21:44:28.998Z,3.90
2023-04-02T21:49:30.627Z,4.20
2023-04-02T21:54:32.322Z,4.20
2023-04-02T21:59:33.846Z,2.80
2023-04-02T22:04:35.400Z,2.40
2023-04-02T22:09:36.950Z,3.20
2023-04-02T22:14:38.445Z,2.90
2023-04-02T22:19:39.956Z,2.80
2023-04-02T22:24:41.456Z,3.00
2023-04-02T22:29:42.968Z,1.80
2023-04-02T22:34:45.759Z,1.80
2023-04-02T22:39:47.387Z,2.00
2023-04-02T22:44:48.939Z,1.40
2023-04-02T22:49:50.687Z,2.20
2023-04-02T22:54:52.216Z,1.80
2023-04-02T22:59:53.752Z,4.30
2023-04-02T23:04:55.435Z,2.00
2023-04-02T23:09:57.427Z,1.60
2023-04-02T23:14:59.748Z,2.60
2023-04-02T23:20:01.392Z,1.90
2023-04-02T23:25:04.413Z,1.50
2023-04-02T23:30:07.116Z,1.80
2023-04-02T23:35:09.683Z,9.30
2023-04-02T23:40:11.579Z,1.60
2023-04-02T23:45:13.060Z,2.00
2023-04-02T23:50:14.823Z,2.40
2023-04-02T23:55:16.352Z,2.00
